Time;durP1;ratioP1;P1;durP2;ratioP2;P2;SDS_P1;SDS_P2;PMS_P1;PMS_P2;Temp;Humidity;BMP_temperature;BMP_pressure;BME280_temperature;BME280_humidity;BME280_pressure;Samples;Min_cycle;Max_cycle;Signal;HPM_P1;HPM_P2
2024/02/12 00:01:58;;;;;;;4.50;2.33;;;;;;;18.82;48.20;99661.75;4976717;28;20038;-71
2024/02/12 00:04:26;;;;;;;5.32;2.63;;;;;;;18.80;48.28;99655.78;4977440;28;20026;-73
2024/02/12 00:06:52;;;;;;;5.10;2.08;;;;;;;18.79;48.32;99665.50;4977398;28;20046;-71
2024/02/12 00:09:17;;;;;;;4.80;2.50;;;;;;;18.81;47.96;99668.00;4975939;28;20042;-71
2024/02/12 00:11:42;;;;;;;4.50;2.60;;;;;;;18.66;48.14;99655.38;4980428;28;20598;-75
2024/02/12 00:14:08;;;;;;;5.60;3.03;;;;;;;18.64;47.79;99661.78;4981823;28;20054;-72
2024/02/12 00:16:34;;;;;;;4.93;3.10;;;;;;;18.75;47.85;99677.34;4980380;28;20092;-74
2024/02/12 00:19:00;;;;;;;4.80;3.10;;;;;;;18.76;48.04;99683.47;4981414;28;20174;-72
2024/02/12 00:21:28;;;;;;;6.13;2.95;;;;;;;18.65;48.12;99663.47;4980836;28;20093;-73
2024/02/12 00:23:54;;;;;;;5.07;2.92;;;;;;;18.61;47.83;99670.88;4981122;28;20149;-71
2024/02/12 00:26:25;;;;;;;5.18;2.95;;;;;;;18.75;48.04;99701.09;4981095;28;20177;-70
2024/02/12 00:28:56;;;;;;;5.93;3.17;;;;;;;18.72;47.90;99705.88;4981015;28;20081;-73
2024/02/12 00:31:22;;;;;;;5.75;3.45;;;;;;;18.59;47.81;99693.91;4981049;28;20026;-72
2024/02/12 00:33:48;;;;;;;6.03;3.15;;;;;;;18.72;48.01;99722.53;4981208;28;20109;-74
2024/02/12 00:36:17;;;;;;;5.32;3.00;;;;;;;18.62;47.87;99703.34;4980311;28;20121;-73
2024/02/12 00:38:43;;;;;;;7.68;3.45;;;;;;;18.63;47.81;99703.19;4980664;28;20022;-73
2024/02/12 00:41:12;;;;;;;5.88;3.10;;;;;;;18.66;47.91;99710.00;4980544;28;20547;-74
2024/02/12 00:43:37;;;;;;;6.45;3.65;;;;;;;18.57;47.84;99700.34;4980796;28;20041;-72
2024/02/12 00:46:03;;;;;;;5.43;2.92;;;;;;;18.53;47.94;99697.19;4980950;28;21358;-73
2024/02/12 00:48:29;;;;;;;5.95;3.30;;;;;;;18.63;47.57;99724.31;4980501;28;20065;-74
2024/02/12 00:50:54;;;;;;;5.60;2.90;;;;;;;18.54;47.83;99701.47;4980203;28;20030;-72
2024/02/12 00:53:20;;;;;;;5.60;2.85;;;;;;;18.51;47.64;99706.25;4980095;28;20035;-72
2024/02/12 00:55:46;;;;;;;5.95;3.20;;;;;;;18.51;47.57;99709.72;4980685;28;20054;-74
2024/02/12 00:58:11;;;;;;;5.90;3.70;;;;;;;18.53;47.60;99710.38;4980475;28;20482;-74
2024/02/12 01:00:37;;;;;;;6.25;3.20;;;;;;;18.52;47.58;99710.53;4980483;28;20031;-74
2024/02/12 01:03:04;;;;;;;6.18;3.50;;;;;;;18.53;47.64;99720.09;4978900;28;20134;-73
2024/02/12 01:05:29;;;;;;;5.78;3.45;;;;;;;18.48;47.32;99729.31;4971276;28;20026;-72
2024/02/12 01:07:55;;;;;;;6.25;3.50;;;;;;;18.51;47.57;99730.81;4980274;28;20031;-72
2024/02/12 01:10:21;;;;;;;8.68;3.50;;;;;;;18.58;47.49;99744.22;4980241;28;20386;-70
2024/02/12 01:12:47;;;;;;;6.10;3.65;;;;;;;18.58;47.54;99750.34;4980063;28;20041;-73
2024/02/12 01:15:13;;;;;;;6.10;3.55;;;;;;;18.44;47.26;99735.88;4980541;28;20046;-71
2024/02/12 01:17:40;;;;;;;6.38;3.33;;;;;;;18.44;47.52;99741.16;4979505;28;20038;-73
2024/02/12 01:20:11;;;;;;;7.13;3.88;;;;;;;18.49;47.53;99752.06;4980022;28;20062;-71
2024/02/12 01:22:38;;;;;;;7.35;3.72;;;;;;;18.43;47.55;99752.69;4979240;28;20062;-69
2024/02/12 01:25:04;;;;;;;6.05;3.47;;;;;;;18.50;47.39;99766.13;4980181;28;20077;-72
2024/02/12 01:27:30;;;;;;;7.35;4.00;;;;;;;18.48;47.47;99761.00;4979542;28;20042;-72
2024/02/12 01:29:55;;;;;;;6.35;3.90;;;;;;;18.42;47.52;99751.03;4979753;28;20491;-71
2024/02/12 01:32:20;;;;;;;5.35;3.35;;;;;;;18.53;47.43;99770.25;4979941;28;20102;-75
2024/02/12 01:34:45;;;;;;;6.78;3.50;;;;;;;18.49;47.45;99775.81;4980181;28;20034;-75
2024/02/12 01:37:11;;;;;;;6.15;3.70;;;;;;;18.47;47.37;99764.59;4979048;28;20034;-72
2024/02/12 01:39:36;;;;;;;6.47;3.80;;;;;;;18.37;47.68;99755.94;4979757;28;20034;-71
2024/02/12 01:42:11;;;;;;;6.47;3.88;;;;;;;18.39;47.58;99753.97;4979870;28;20054;-71
2024/02/12 01:44:37;;;;;;;6.15;3.58;;;;;;;18.36;47.50;99753.44;4979572;28;20031;-72
2024/02/12 01:47:03;;;;;;;6.32;3.70;;;;;;;18.48;47.42;99779.47;4979674;28;20038;-70
2024/02/12 01:49:28;;;;;;;6.25;3.28;;;;;;;18.45;47.30;99782.41;4979619;28;20039;-73
2024/02/12 01:51:54;;;;;;;6.78;3.90;;;;;;;18.45;47.54;99784.19;4979144;28;20047;-73
2024/02/12 01:54:19;;;;;;;6.15;3.90;;;;;;;18.44;47.51;99788.66;4979839;28;21217;-72
2024/02/12 01:56:46;;;;;;;5.93;3.53;;;;;;;18.44;47.29;99793.09;4979627;28;20455;-73
2024/02/12 01:59:17;;;;;;;7.65;4.05;;;;;;;18.33;47.64;99774.88;4979761;28;20085;-73
2024/02/12 02:01:45;;;;;;;6.38;3.78;;;;;;;18.44;47.47;99793.91;4978385;28;20061;-72
2024/02/12 02:04:12;;;;;;;7.97;4.13;;;;;;;18.40;47.43;99782.00;4978417;28;20039;-72
2024/02/12 02:06:37;;;;;;;6.97;3.88;;;;;;;18.29;47.23;99764.63;4978643;28;20078;-74
2024/02/12 02:09:03;;;;;;;7.80;4.07;;;;;;;18.40;47.25;99783.81;4979432;28;20388;-70
2024/02/12 02:11:28;;;;;;;6.53;4.20;;;;;;;18.33;47.32;99777.50;4979460;28;20417;-72
2024/02/12 02:13:54;;;;;;;6.63;3.80;;;;;;;18.33;47.04;99780.16;4979375;28;20049;-73
2024/02/12 02:16:19;;;;;;;7.57;4.20;;;;;;;18.28;47.24;99783.25;4978604;28;20468;-71
2024/02/12 02:18:50;;;;;;;6.55;3.72;;;;;;;18.29;47.16;99785.72;4979141;28;20118;-73
2024/02/12 02:21:20;;;;;;;6.53;4.00;;;;;;;18.32;47.18;99792.50;4979025;28;20038;-70
2024/02/12 02:23:45;;;;;;;7.07;4.40;;;;;;;18.30;47.13;99794.44;4978575;28;20038;-72
2024/02/12 02:26:11;;;;;;;6.07;3.58;;;;;;;18.26;47.08;99796.56;4978973;28;20435;-73
2024/02/12 02:28:37;;;;;;;6.78;4.05;;;;;;;18.25;47.21;99792.28;4977463;28;20045;-70
2024/02/12 02:31:02;;;;;;;7.28;4.40;;;;;;;18.36;47.04;99809.69;4978936;28;20041;-71
2024/02/12 02:33:27;;;;;;;7.20;3.65;;;;;;;18.25;47.36;99791.44;4977673;28;20057;-75
2024/02/12 02:35:54;;;;;;;6.07;3.72;;;;;;;18.31;47.10;99796.94;4978653;28;20368;-73
2024/02/12 02:38:19;;;;;;;7.07;4.25;;;;;;;18.33;46.99;99804.72;4978360;28;20037;-74
2024/02/12 02:40:45;;;;;;;8.00;4.53;;;;;;;18.21;46.94;99782.16;4978974;28;20384;-72
2024/02/12 02:43:10;;;;;;;7.45;3.83;;;;;;;18.24;46.92;99787.13;4978619;28;20045;-70
2024/02/12 02:45:35;;;;;;;6.85;4.05;;;;;;;18.24;46.86;99785.31;4969167;28;20490;-70
2024/02/12 02:48:04;;;;;;;6.80;3.95;;;;;;;18.23;46.75;99796.88;4978579;28;20027;-73
2024/02/12 02:50:31;;;;;;;8.20;3.78;;;;;;;18.22;46.73;99805.75;4978467;28;20490;-71
2024/02/12 02:52:58;;;;;;;6.00;3.85;;;;;;;18.18;46.73;99799.09;4978394;28;20047;-74
2024/02/12 02:55:24;;;;;;;5.20;3.15;;;;;;;18.21;46.51;99814.63;4978271;28;20040;-71
2024/02/12 02:57:51;;;;;;;6.38;3.65;;;;;;;18.26;46.43;99822.94;4976350;28;20524;-71
2024/02/12 03:00:17;;;;;;;6.07;3.85;;;;;;;18.25;46.43;99820.47;4978479;28;20031;-70
2024/02/12 03:02:42;;;;;;;7.00;4.00;;;;;;;18.26;46.44;99830.00;4968520;28;20041;-73
2024/02/12 03:05:09;;;;;;;6.20;4.07;;;;;;;18.15;46.34;99814.41;4978119;28;20065;-73
2024/02/12 03:07:36;;;;;;;6.60;4.20;;;;;;;18.16;46.43;99819.53;4978573;28;20069;-73
2024/02/12 03:10:01;;;;;;;6.97;4.40;;;;;;;18.21;46.18;99829.63;4978143;28;20030;-70
2024/02/12 03:12:27;;;;;;;7.80;4.28;;;;;;;18.25;46.48;99841.56;4978002;28;20050;-73
2024/02/12 03:14:53;;;;;;;5.95;4.00;;;;;;;18.25;46.39;99833.66;4978336;28;20494;-73
2024/02/12 03:17:18;;;;;;;7.15;4.60;;;;;;;18.21;46.08;99840.19;4976718;28;20037;-74
2024/02/12 03:19:44;;;;;;;7.07;4.70;;;;;;;18.23;46.16;99846.13;4978352;28;20027;-71
2024/02/12 03:22:09;;;;;;;6.57;4.13;;;;;;;18.17;46.44;99838.84;4977814;28;20040;-72
2024/02/12 03:24:35;;;;;;;6.65;4.22;;;;;;;18.10;46.23;99828.88;4978085;28;20038;-70
2024/02/12 03:27:00;;;;;;;6.05;3.95;;;;;;;18.21;46.37;99846.28;4977841;28;20467;-72
2024/02/12 03:29:27;;;;;;;7.32;4.80;;;;;;;18.20;46.30;99854.34;4977675;28;20053;-70
2024/02/12 03:31:52;;;;;;;6.22;3.97;;;;;;;18.11;46.26;99832.34;4977525;28;20594;-69
2024/02/12 03:34:18;;;;;;;6.53;4.32;;;;;;;18.20;46.33;99852.56;4977499;28;20034;-73
2024/02/12 03:36:43;;;;;;;8.23;4.10;;;;;;;18.13;46.50;99840.94;4977556;28;20031;-72
2024/02/12 03:39:10;;;;;;;7.97;4.72;;;;;;;18.22;46.55;99855.84;4977486;28;20044;-71
2024/02/12 03:41:36;;;;;;;7.65;4.10;;;;;;;18.15;46.25;99853.97;4977310;28;20042;-74
2024/02/12 03:44:03;;;;;;;7.45;4.28;;;;;;;18.09;46.18;99839.59;4977310;28;20030;-73
2024/02/12 03:46:31;;;;;;;6.63;4.32;;;;;;;18.10;46.16;99833.31;4977653;28;20485;-71
2024/02/12 03:59:57;;;;;;;7.10;4.13;;;;;;;18.15;46.13;99869.78;4977985;28;20548;-72
2024/02/12 04:02:23;;;;;;;9.48;4.55;;;;;;;18.06;46.04;99863.59;4975472;28;20089;-73
2024/02/12 04:04:50;;;;;;;7.15;4.38;;;;;;;18.15;45.96;99877.69;4977808;28;20035;-71
2024/02/12 04:07:16;;;;;;;8.48;4.00;;;;;;;18.11;46.10;99883.25;4977286;28;20579;-71
2024/02/12 04:09:42;;;;;;;7.07;4.00;;;;;;;18.07;46.05;99878.44;4977367;28;20030;-72
2024/02/12 04:12:11;;;;;;;6.57;4.55;;;;;;;18.04;46.10;99878.72;4977469;28;20041;-69
2024/02/12 04:14:42;;;;;;;6.25;4.25;;;;;;;18.15;45.90;99904.06;4978071;28;20035;-70
2024/02/12 04:17:10;;;;;;;6.20;4.00;;;;;;;18.12;46.10;99913.13;4976857;28;20121;-73
2024/02/12 04:19:38;;;;;;;6.80;4.47;;;;;;;18.15;45.97;99909.34;4977017;28;20034;-72
2024/02/12 04:22:14;;;;;;;6.93;4.25;;;;;;;18.04;46.04;99894.53;4977289;28;20030;-71
2024/02/12 04:24:43;;;;;;;7.55;4.60;;;;;;;18.13;45.86;99909.47;4977240;28;20117;-74
2024/02/12 04:27:10;;;;;;;8.05;4.68;;;;;;;18.00;46.01;99888.75;4977307;28;20034;-73
2024/02/12 04:29:39;;;;;;;7.93;4.60;;;;;;;18.05;46.00;99901.47;4977044;28;20472;-72
2024/02/12 04:32:08;;;;;;;7.35;4.70;;;;;;;18.01;45.79;99900.09;4976510;28;20483;-74
2024/02/12 04:34:34;;;;;;;6.85;4.72;;;;;;;18.04;45.83;99910.34;4977097;28;20031;-74
2024/02/12 04:37:00;;;;;;;7.70;4.75;;;;;;;17.99;45.81;99899.44;4977111;28;20046;-72
2024/02/12 04:39:26;;;;;;;7.25;4.35;;;;;;;18.05;45.84;99920.75;4976950;28;20431;-72
2024/02/12 04:41:52;;;;;;;6.20;4.15;;;;;;;18.08;45.63;99923.09;4977059;28;20468;-73
2024/02/12 04:44:18;;;;;;;8.10;4.68;;;;;;;18.08;45.61;99928.38;4977193;28;20031;-72
2024/02/12 04:46:43;;;;;;;8.23;4.68;;;;;;;17.97;45.70;99911.94;4977102;28;20030;-74
2024/02/12 04:49:09;;;;;;;7.13;4.70;;;;;;;18.08;45.64;99932.84;4976796;28;20534;-74
2024/02/12 04:51:39;;;;;;;7.32;5.00;;;;;;;18.07;45.63;99934.66;4976919;28;20050;-73
2024/02/12 04:54:05;;;;;;;7.75;4.93;;;;;;;17.92;45.91;99912.38;4977114;28;20041;-70
2024/02/12 04:56:31;;;;;;;7.75;4.47;;;;;;;17.95;45.78;99915.53;4977229;28;20038;-73
2024/02/12 04:58:56;;;;;;;6.22;4.28;;;;;;;18.02;45.59;99933.41;4980691;28;20030;-72
2024/02/12 05:01:22;;;;;;;8.18;4.55;;;;;;;18.03;45.95;99935.09;4980017;28;20089;-72
2024/02/12 05:03:47;;;;;;;8.35;4.35;;;;;;;17.97;45.93;99925.94;4979600;28;20038;-71
2024/02/12 05:06:16;;;;;;;8.00;4.57;;;;;;;17.92;46.09;99915.81;4980804;28;20392;-73
2024/02/12 05:08:42;;;;;;;9.45;4.80;;;;;;;18.02;45.99;99934.22;4970815;28;20390;-73
2024/02/12 05:11:08;;;;;;;7.03;4.47;;;;;;;18.02;45.87;99936.88;4980204;28;20035;-74
2024/02/12 05:13:35;;;;;;;7.60;4.38;;;;;;;18.00;45.87;99930.09;4980105;28;20026;-72
2024/02/12 05:16:02;;;;;;;7.13;4.20;;;;;;;18.05;45.88;99947.13;4980137;28;20037;-71
2024/02/12 05:23:58;;;;;;;7.28;4.47;;;;;;;17.89;45.61;99928.47;4979979;28;20081;-70
2024/02/12 05:26:24;;;;;;;7.68;4.50;;;;;;;17.92;45.54;99941.38;4979781;28;20034;-73
2024/02/12 05:28:50;;;;;;;7.50;4.72;;;;;;;17.98;45.72;99948.69;4978426;28;20038;-72
2024/02/12 05:31:17;;;;;;;5.72;3.88;;;;;;;17.92;45.67;99942.19;4980083;28;20038;-72
2024/02/12 05:33:42;;;;;;;7.15;4.13;;;;;;;18.01;45.75;99955.47;4979884;28;20040;-71
2024/02/12 05:36:09;;;;;;;6.85;4.18;;;;;;;17.93;45.74;99943.03;4980039;28;20043;-71
2024/02/12 05:38:39;;;;;;;8.00;4.47;;;;;;;17.89;45.86;99944.28;4979614;28;20065;-73
2024/02/12 05:41:04;;;;;;;6.40;4.18;;;;;;;17.88;46.04;99945.25;4979736;28;20069;-70
2024/02/12 05:43:29;;;;;;;6.70;4.38;;;;;;;17.96;45.69;99953.28;4980001;28;20444;-69
2024/02/12 05:45:54;;;;;;;6.72;4.25;;;;;;;17.99;45.97;99960.91;4979774;28;20031;-72
2024/02/12 05:48:20;;;;;;;7.13;4.00;;;;;;;17.87;45.92;99943.59;4979413;28;20038;-70
2024/02/12 05:50:48;;;;;;;6.13;4.03;;;;;;;17.98;45.96;99958.44;4978868;28;20502;-70
2024/02/12 05:53:15;;;;;;;7.25;3.78;;;;;;;17.98;45.82;99967.16;4979184;28;20145;-72
2024/02/12 05:55:40;;;;;;;6.53;3.88;;;;;;;17.87;46.02;99951.50;4978358;28;20129;-69
2024/02/12 05:58:08;;;;;;;5.78;3.85;;;;;;;17.93;45.86;99954.41;4969547;28;20081;-73
2024/02/12 06:00:34;;;;;;;6.78;4.22;;;;;;;17.83;46.01;99939.56;4979666;28;20035;-70
2024/02/12 06:02:59;;;;;;;6.88;3.80;;;;;;;17.94;45.90;99963.97;4977997;28;20034;-73
2024/02/12 06:05:25;;;;;;;6.85;3.85;;;;;;;17.95;45.96;99968.25;4978920;28;20058;-74
2024/02/12 06:07:52;;;;;;;6.32;3.50;;;;;;;17.94;46.05;99968.41;4978790;28;20113;-72
2024/02/12 06:10:18;;;;;;;5.45;3.30;;;;;;;17.88;46.40;99953.16;4979310;28;20159;-74
2024/02/12 06:12:43;;;;;;;5.35;3.13;;;;;;;17.86;46.42;99942.72;4978838;28;20063;-71
2024/02/12 06:15:10;;;;;;;5.80;3.13;;;;;;;17.89;46.25;99944.28;4979426;28;20038;-70
2024/02/12 06:17:35;;;;;;;4.95;2.63;;;;;;;18.02;46.23;99957.97;4978805;28;20042;-73
2024/02/12 06:20:01;;;;;;;5.82;3.00;;;;;;;18.05;46.56;99957.66;4979348;28;20121;-70
2024/02/12 06:22:27;;;;;;;5.40;2.83;;;;;;;18.04;46.50;99958.66;4978748;28;20026;-73
2024/02/12 06:24:52;;;;;;;4.75;2.65;;;;;;;18.03;46.66;99953.53;4978706;28;20029;-71
2024/02/12 06:27:17;;;;;;;4.40;2.25;;;;;;;18.08;46.86;99964.47;4977823;28;20388;-71
2024/02/12 06:29:43;;;;;;;4.22;2.17;;;;;;;18.03;46.52;99954.34;4978560;28;20105;-74
2024/02/12 06:32:13;;;;;;;4.97;2.25;;;;;;;18.14;46.58;99977.09;4977843;28;20121;-75
2024/02/12 06:34:42;;;;;;;4.30;2.15;;;;;;;18.09;46.44;99972.25;4977816;28;20464;-70
2024/02/12 06:37:07;;;;;;;3.83;2.17;;;;;;;18.13;46.42;99972.78;4978875;28;20038;-71
2024/02/12 06:39:32;;;;;;;4.40;2.20;;;;;;;18.15;46.03;99976.13;4978548;28;20440;-72
2024/02/12 06:41:57;;;;;;;4.70;2.30;;;;;;;18.25;46.48;99992.72;4976769;28;20264;-72
2024/02/12 06:44:23;;;;;;;4.63;2.47;;;;;;;18.25;46.49;99989.25;4977812;28;20271;-73
2024/02/12 06:46:48;;;;;;;4.57;2.30;;;;;;;18.17;46.53;99976.78;4978505;28;20660;-74
2024/02/12 06:49:13;;;;;;;4.15;2.35;;;;;;;18.21;46.45;99978.13;4976904;28;20415;-72
2024/02/12 06:51:40;;;;;;;4.68;2.40;;;;;;;18.25;46.43;99991.88;4978154;28;20548;-71
2024/02/12 06:54:07;;;;;;;3.78;2.08;;;;;;;18.30;46.28;99990.47;4977323;28;20428;-70
2024/02/12 06:56:33;;;;;;;4.25;2.10;;;;;;;18.36;46.42;100007.53;4978161;28;20034;-69
2024/02/12 06:58:58;;;;;;;4.90;2.30;;;;;;;18.34;46.44;100012.13;4978470;28;20058;-70
2024/02/12 07:01:23;;;;;;;3.92;2.30;;;;;;;18.34;46.53;100008.63;4976348;28;20030;-71
2024/02/12 07:03:51;;;;;;;4.85;2.58;;;;;;;18.28;46.43;99996.88;4975953;28;20041;-71
2024/02/12 07:06:17;;;;;;;5.03;2.80;;;;;;;18.44;46.40;100033.19;4978088;28;20113;-73
2024/02/12 07:08:42;;;;;;;5.15;3.08;;;;;;;18.40;46.28;100022.06;4978056;28;20121;-72
2024/02/12 07:11:13;;;;;;;4.75;2.40;;;;;;;18.28;46.22;100002.16;4978510;28;20026;-69
2024/02/12 07:13:38;;;;;;;5.60;2.97;;;;;;;18.46;46.26;100041.75;4978349;28;20045;-74
2024/02/12 07:16:05;;;;;;;5.53;3.15;;;;;;;18.44;46.55;100041.09;4978460;28;20042;-73
2024/02/12 07:18:30;;;;;;;4.68;2.40;;;;;;;18.37;46.43;100032.09;4977669;28;20398;-71
2024/02/12 07:20:56;;;;;;;4.55;2.60;;;;;;;18.31;46.42;100031.69;4977658;28;20034;-70
2024/02/12 07:23:21;;;;;;;5.68;2.47;;;;;;;18.40;46.91;100047.63;4978013;28;20419;-68
2024/02/12 07:25:47;;;;;;;5.47;3.03;;;;;;;18.44;46.77;100055.09;4968461;28;20026;-71
2024/02/12 07:28:13;;;;;;;4.93;2.92;;;;;;;18.34;46.90;100049.06;4977861;28;20041;-72
2024/02/12 07:30:39;;;;;;;5.22;2.80;;;;;;;18.34;46.70;100046.41;4977864;28;20027;-69
2024/02/12 07:33:05;;;;;;;6.00;2.65;;;;;;;18.43;46.64;100057.88;4977561;28;20046;-70
2024/02/12 07:35:30;;;;;;;4.47;2.67;;;;;;;18.41;46.92;100071.22;4977539;28;20416;-72
2024/02/12 07:37:58;;;;;;;5.53;2.80;;;;;;;18.42;46.73;100070.25;4977490;28;20039;-70
2024/02/12 07:40:23;;;;;;;6.25;2.80;;;;;;;18.44;46.47;100083.31;4977615;28;20464;-71
2024/02/12 07:42:49;;;;;;;6.32;3.10;;;;;;;18.36;46.51;100072.63;4977233;28;20037;-71
2024/02/12 07:45:14;;;;;;;5.63;2.70;;;;;;;18.30;46.70;100069.59;4977397;28;20034;-70
2024/02/12 07:47:41;;;;;;;5.65;2.50;;;;;;;18.32;46.78;100074.72;4977584;28;20480;-70
2024/02/12 07:50:07;;;;;;;5.32;2.88;;;;;;;18.40;47.03;100092.47;4977659;28;20042;-71
2024/02/12 07:52:33;;;;;;;6.00;2.47;;;;;;;18.36;46.88;100085.81;4977551;28;20063;-72
2024/02/12 07:55:00;;;;;;;5.28;2.78;;;;;;;18.45;47.14;100101.63;4974909;28;20042;-70
2024/02/12 07:57:25;;;;;;;4.80;2.50;;;;;;;18.42;46.93;100096.63;4975338;28;20085;-72
2024/02/12 07:59:51;;;;;;;5.07;2.53;;;;;;;18.39;47.38;100099.56;4976622;28;20122;-73
2024/02/12 08:02:17;;;;;;;5.00;2.65;;;;;;;18.36;47.10;100094.56;4976855;28;20073;-73
2024/02/12 08:04:42;;;;;;;5.47;2.85;;;;;;;18.44;47.34;100113.16;4976120;28;20034;-71
2024/02/12 08:07:08;;;;;;;7.35;2.75;;;;;;;18.47;47.61;100120.78;4975603;28;20039;-72
2024/02/12 08:09:33;;;;;;;4.93;2.70;;;;;;;18.42;47.51;100120.38;4974226;28;20042;-71
2024/02/12 08:12:04;;;;;;;6.15;2.88;;;;;;;18.35;47.32;100103.44;4975965;28;20034;-71
2024/02/12 08:14:30;;;;;;;6.50;3.00;;;;;;;18.45;47.00;100133.28;4976241;28;20035;-71
2024/02/12 08:16:55;;;;;;;5.68;2.88;;;;;;;18.38;47.38;100120.81;4974721;28;20042;-71
2024/02/12 08:19:22;;;;;;;6.70;3.33;;;;;;;18.34;47.14;100119.41;4976371;28;21027;-71
2024/02/12 08:21:47;;;;;;;5.95;3.22;;;;;;;18.35;47.09;100121.09;4976114;28;20026;-73
2024/02/12 08:24:15;;;;;;;5.47;2.80;;;;;;;18.39;46.79;100133.00;4977311;28;20137;-67
2024/02/12 08:26:41;;;;;;;6.55;3.20;;;;;;;18.47;47.07;100143.69;4976969;28;20275;-69
2024/02/12 08:29:06;;;;;;;6.30;2.85;;;;;;;18.42;47.04;100146.75;4974142;28;20031;-69
2024/02/12 08:31:31;;;;;;;5.97;3.35;;;;;;;18.37;47.29;100133.16;4975821;28;20078;-69
2024/02/12 08:33:59;;;;;;;6.70;3.70;;;;;;;18.46;47.21;100155.22;4979139;28;20027;-69
2024/02/12 08:36:24;;;;;;;6.25;3.28;;;;;;;18.48;47.10;100158.53;4980252;28;20177;-69
2024/02/12 08:38:49;;;;;;;5.63;3.30;;;;;;;18.37;47.04;100148.16;4980162;28;20539;-70
2024/02/12 08:41:24;;;;;;;5.90;3.53;;;;;;;18.48;46.99;100172.56;4979119;28;20038;-71
2024/02/12 08:43:50;;;;;;;7.25;3.80;;;;;;;18.34;47.07;100154.56;4979704;28;20030;-68
2024/02/12 08:46:16;;;;;;;6.18;3.80;;;;;;;18.44;47.15;100167.72;4979017;28;20102;-67
2024/02/12 08:48:41;;;;;;;6.47;3.30;;;;;;;18.45;46.79;100180.78;4978132;28;20980;-70
2024/02/12 08:51:08;;;;;;;6.53;3.47;;;;;;;18.37;46.99;100166.63;4979808;28;20046;-72
2024/02/12 08:53:34;;;;;;;4.63;2.70;;;;;;;18.49;47.27;100183.94;4979681;28;20517;-63
2024/02/12 08:55:59;;;;;;;4.72;2.63;;;;;;;18.45;47.27;100185.19;4980942;28;20066;-71
2024/02/12 08:58:25;;;;;;;5.22;2.47;;;;;;;18.43;47.23;100185.34;4979832;28;20511;-69
2024/02/12 09:00:52;;;;;;;6.15;2.85;;;;;;;18.46;47.28;100181.59;4980612;28;20048;-70
2024/02/12 09:03:18;;;;;;;5.72;2.50;;;;;;;18.57;47.06;100202.53;4979625;28;20115;-70
2024/02/12 09:05:43;;;;;;;4.78;2.58;;;;;;;18.52;47.17;100196.00;4970415;28;20502;-72
2024/02/12 09:08:08;;;;;;;4.93;2.30;;;;;;;18.54;47.20;100194.91;4979838;28;20135;-69
2024/02/12 09:10:34;;;;;;;7.18;2.97;;;;;;;18.58;47.11;100211.28;4976846;28;20109;-70
2024/02/12 09:13:00;;;;;;;6.43;3.25;;;;;;;18.60;46.75;100215.44;4974646;28;20038;-70
2024/02/12 09:15:25;;;;;;;6.53;3.50;;;;;;;18.52;46.73;100217.13;4978180;28;20026;-70
2024/02/12 09:17:51;;;;;;;5.55;3.40;;;;;;;18.57;46.71;100221.00;4978880;28;20042;-70
2024/02/12 09:20:16;;;;;;;6.15;3.60;;;;;;;18.58;46.90;100232.38;4978561;28;20360;-70
2024/02/12 09:22:42;;;;;;;5.47;3.13;;;;;;;18.57;46.72;100233.38;4977312;28;20035;-71
2024/02/12 09:25:12;;;;;;;7.10;3.17;;;;;;;18.61;46.78;100245.31;4979049;28;20031;-71
2024/02/12 09:27:38;;;;;;;5.82;3.60;;;;;;;18.58;46.66;100253.50;4975964;28;20117;-71
2024/02/12 09:30:09;;;;;;;6.63;3.58;;;;;;;18.43;46.79;100224.09;4977444;28;20480;-70
2024/02/12 09:32:36;;;;;;;6.95;4.25;;;;;;;18.54;46.89;100252.97;4978420;28;20034;-70
2024/02/12 09:35:03;;;;;;;5.50;3.80;;;;;;;18.44;46.82;100237.16;4978822;28;20035;-72
2024/02/12 09:37:32;;;;;;;9.02;3.85;;;;;;;18.43;46.92;100242.56;4979156;28;20038;-67
2024/02/12 09:39:57;;;;;;;5.72;3.53;;;;;;;18.56;46.67;100266.84;4978955;28;20026;-73
2024/02/12 09:42:25;;;;;;;5.57;3.47;;;;;;;18.56;46.86;100271.28;4978604;28;20056;-68
2024/02/12 09:44:55;;;;;;;7.97;4.25;;;;;;;18.46;46.64;100250.19;4978791;28;20037;-70
2024/02/12 09:47:20;;;;;;;6.35;4.00;;;;;;;18.44;46.66;100260.91;4979178;28;20134;-67
2024/02/12 09:49:47;;;;;;;6.82;4.18;;;;;;;18.45;46.59;100259.94;4978475;28;20113;-67
2024/02/12 09:52:13;;;;;;;6.95;3.75;;;;;;;18.54;46.34;100278.53;4977877;28;20412;-70
2024/02/12 09:54:38;;;;;;;7.10;4.13;;;;;;;18.55;46.73;100288.09;4978370;28;20027;-70
2024/02/12 09:57:04;;;;;;;5.85;4.00;;;;;;;18.54;46.54;100286.44;4977661;28;20041;-72
2024/02/12 09:59:29;;;;;;;6.68;3.60;;;;;;;18.45;46.65;100281.03;4979059;28;20102;-70
2024/02/12 10:01:55;;;;;;;6.13;4.10;;;;;;;18.57;46.52;100300.19;4978245;28;20038;-71
2024/02/12 10:04:20;;;;;;;7.45;3.58;;;;;;;18.46;46.71;100276.59;4978914;28;20031;-70
2024/02/12 10:06:56;;;;;;;5.65;3.65;;;;;;;18.59;46.38;100306.13;4978010;28;20537;-69
2024/02/12 10:09:21;;;;;;;6.28;3.70;;;;;;;18.46;46.60;100284.50;4978534;28;20046;-70
2024/02/12 10:11:47;;;;;;;7.20;3.60;;;;;;;18.56;46.72;100302.97;4978077;28;20039;-71
2024/02/12 10:14:13;;;;;;;6.00;3.47;;;;;;;18.60;46.54;100309.63;4978614;28;20039;-70
2024/02/12 10:16:39;;;;;;;7.70;3.53;;;;;;;18.57;46.74;100307.28;4978871;28;20061;-71
2024/02/12 10:19:04;;;;;;;5.75;3.63;;;;;;;18.56;46.66;100309.06;4978621;28;20387;-71
2024/02/12 10:21:31;;;;;;;6.10;3.92;;;;;;;18.54;46.45;100316.28;4978283;28;20381;-69
2024/02/12 10:24:00;;;;;;;5.93;3.70;;;;;;;18.48;46.37;100307.16;4977734;28;21469;-70
2024/02/12 10:26:26;;;;;;;6.43;4.28;;;;;;;18.48;46.65;100306.28;4977459;28;20034;-69
2024/02/12 10:28:53;;;;;;;6.13;3.72;;;;;;;18.58;46.55;100324.75;4977854;28;20022;-73
2024/02/12 10:31:19;;;;;;;7.88;3.80;;;;;;;18.60;46.70;100330.75;4978090;28;20061;-70
2024/02/12 10:33:44;;;;;;;5.10;3.40;;;;;;;18.56;46.60;100316.97;4977887;28;20038;-72
2024/02/12 10:36:10;;;;;;;6.18;3.67;;;;;;;18.51;46.19;100315.75;4977536;28;20038;-70
2024/02/12 10:38:41;;;;;;;5.22;3.40;;;;;;;18.53;46.61;100329.63;4977616;28;20035;-70
2024/02/12 10:41:28;;;;;;;6.30;3.67;;;;;;;18.46;46.53;100314.34;4978009;28;20113;-70
2024/02/12 10:43:54;;;;;;;5.60;3.63;;;;;;;18.49;46.47;100329.91;4977700;28;20110;-70
2024/02/12 10:46:19;;;;;;;5.78;3.30;;;;;;;18.58;46.58;100340.59;4977851;28;20116;-72
2024/02/12 10:48:46;;;;;;;6.32;3.72;;;;;;;18.58;46.50;100349.34;4977635;28;20379;-71
2024/02/12 10:51:14;;;;;;;5.60;3.40;;;;;;;18.58;46.33;100348.50;4977459;28;20038;-72
2024/02/12 10:53:39;;;;;;;7.43;3.50;;;;;;;18.57;46.62;100352.13;4977660;28;20068;-70
2024/02/12 10:56:07;;;;;;;11.55;3.90;;;;;;;18.59;46.44;100358.09;4977872;28;20058;-70
2024/02/12 10:58:33;;;;;;;7.68;3.53;;;;;;;18.61;46.61;100364.91;4977585;28;20425;-67
2024/02/12 11:01:00;;;;;;;4.82;2.80;;;;;;;18.61;46.39;100371.97;4976602;28;20486;-68
2024/02/12 11:03:36;;;;;;;6.50;3.70;;;;;;;18.60;46.36;100370.34;4976579;28;20045;-70
2024/02/12 11:06:08;;;;;;;5.90;3.63;;;;;;;18.58;46.46;100362.56;4976816;28;20030;-70
2024/02/12 11:08:35;;;;;;;7.55;3.75;;;;;;;18.60;46.70;100371.16;4976379;28;20766;-74
2024/02/12 11:11:03;;;;;;;6.28;3.47;;;;;;;18.57;46.53;100371.44;4975850;28;20026;-72
2024/02/12 11:13:38;;;;;;;6.88;3.70;;;;;;;18.49;46.43;100347.53;4977258;28;20473;-71
2024/02/12 11:16:04;;;;;;;6.00;3.38;;;;;;;18.59;46.56;100373.94;4977240;28;20105;-73
2024/02/12 11:18:38;;;;;;;6.80;3.80;;;;;;;18.53;46.28;100356.84;4976681;28;20076;-73
2024/02/12 11:21:04;;;;;;;;;;;;;;;18.59;46.35;100374.75;4978169;28;20033;-73
2024/02/12 11:23:30;;;;;;;7.28;3.50;;;;;;;18.52;46.36;100359.59;4977046;28;19918;-74
2024/02/12 11:25:58;;;;;;;6.78;3.40;;;;;;;18.59;46.45;100374.75;4977437;28;20114;-71
2024/02/12 11:28:27;;;;;;;5.85;3.50;;;;;;;18.44;46.43;100340.03;4977184;28;20061;-71
2024/02/12 11:30:53;;;;;;;6.18;3.95;;;;;;;18.58;46.75;100375.75;4977312;28;20106;-74
2024/02/12 11:33:19;;;;;;;5.35;4.07;;;;;;;18.57;46.42;100365.34;4977552;28;20536;-74
2024/02/12 11:35:45;;;;;;;5.50;3.58;;;;;;;18.52;46.64;100362.25;4976867;28;20129;-75
2024/02/12 11:38:13;;;;;;;8.32;3.70;;;;;;;18.57;46.60;100376.72;4976376;28;20033;-70
2024/02/12 11:40:39;;;;;;;7.20;3.75;;;;;;;18.59;46.57;100366.00;4976061;28;20026;-73
2024/02/12 11:43:05;;;;;;;7.10;3.70;;;;;;;18.49;46.29;100351.00;4976439;28;20042;-69